< < Back
Terminal Aerodrome Forecast


Current Version              Previous Versions:   1  2  3  4  5  6  7  8  9  

Terminal Aerodrome Forecast

568
FTUS42 KFFC 181346 AAA
TAFATL
TAF AMD
KATL 181346Z 1814/1918 06007KT 6SM -DZ BR OVC004
     FM181600 07007KT P6SM BKN008 OVC014
     FM181800 11008KT P6SM VCSH BKN025
     FM190300 12006KT P6SM -RA BKN015
     FM190600 13006KT 3SM -SHRA BR BKN006 OVC012
     FM191400 19010KT 6SM -SHRA BKN010 OVC025 PROB30 1914/1918 3SM
      TSRA BKN010CB OVC012=

Latest METAR

758
SAUS70 KWBC 181600 RRB
MTRATL
METAR KATL 181552Z 09006KT 10SM OVC007 19/17 A3000 RMK AO2 SLP155
T01940167


USA.gov is the U.S. government's official web portal to all federal, state and local government web resources and services.